METAR Data
IDs: Format: Raw Decoded Include TAF

Data at: 0138 UTC 24 Sep 2018

KFAM 240056Z AUTO 09003KT 10SM FEW031 OVC045 21/18 A3001 RMK AO2 SLP157 T02110183
KFAM 232356Z AUTO 08004KT 10SM OVC045 21/18 A3001 RMK AO2 SLP154 T02110178 10233 20211 56005
KFAM 232256Z AUTO 09007KT 10SM OVC043 22/18 A3001 RMK AO2 SLP155 T02220183
KFAM 232156Z AUTO 10006KT 10SM OVC043 23/18 A3002 RMK AO2 SLP157 T02280183
KFAM 232056Z AUTO 08007KT 10SM OVC045 23/18 A3002 RMK AO2 SLP159 T02280178 56022
KFAM 231956Z AUTO 08006KT 10SM FEW024 SCT030 OVC041 23/18 A3004 RMK AO2 SLP164 T02280178
KFAM 231856Z AUTO 09006KT 10SM FEW022 OVC037 22/17 A3007 RMK AO2 SLP174 T02220172
KFAM 231756Z AUTO 05008KT 10SM SCT018 OVC037 21/17 A3009 RMK AO2 SLP182 T02110172 10211 20150 58007
KFAM 231746Z AUTO 04009KT 10SM BKN018 BKN037 OVC049 21/17 A3009 RMK AO2
KFAM 231708Z AUTO 04007KT 10SM SCT014 OVC050 21/17 A3009 RMK AO2
KFAM 231656Z AUTO 03007KT 10SM BKN012 OVC050 21/17 A3009 RMK AO2 SLP184 T02060172
KFAM 231614Z AUTO 05004KT 10SM OVC010 18/16 A3011 RMK AO2 CIG 008V013
KFAM 231556Z AUTO 08007KT 10SM OVC008 18/16 A3011 RMK AO2 SLP191 T01830161
KFAM 231456Z AUTO 06007KT 10SM OVC008 17/16 A3011 RMK AO2 SLP192 T01720156 52005
KFAM 231356Z AUTO 03008KT 10SM BKN008 BKN014 OVC045 17/15 A3010 RMK AO2 SLP189 T01670150
KFAM 231256Z AUTO 03005KT 10SM OVC008 16/14 A3010 RMK AO2 CIG 006V010 SLP191 T01560144
KFAM 231249Z AUTO 03004KT 10SM OVC008 15/14 A3010 RMK AO2 CIG 006V010
KFAM 231156Z AUTO 10SM OVC005 15/14 A3009 RMK AO2 SLP185 70014 T01500139 10156 20144 53003 $
KFAM 231056Z AUTO 03005KT 4SM BR OVC005 14/14 A3008 RMK AO2 SLP182 T01440144
KFAM 231023Z AUTO 03005KT 10SM OVC005 15/14 A3009 RMK AO2
KFAM 230956Z AUTO 02005KT 10SM OVC007 15/14 A3008 RMK AO2 SLP184 T01500139
KFAM 230856Z AUTO 02004KT 10SM OVC007 15/14 A3008 RMK AO2 SLP185 T01500139 56007
KFAM 230810Z AUTO 04004KT 9SM OVC007 15/14 A3008 RMK AO2 CIG 006V011
KFAM 230756Z AUTO 05005KT 10SM OVC010 15/14 A3009 RMK AO2 CIG 007V014 SLP183 T01500139
KFAM 230733Z AUTO 03003KT 7SM BKN014 OVC024 15/14 A3009 RMK AO2
KFAM 230724Z AUTO 02005KT 8SM SCT014 OVC024 15/14 A3009 RMK AO2
KFAM 230716Z AUTO 03004KT 10SM BKN014 OVC024 15/14 A3010 RMK AO2
KFAM 230656Z AUTO 03004KT 10SM BKN024 OVC036 15/14 A3010 RMK AO2 SLP188 T01500139
KFAM 230652Z AUTO 05004KT 10SM BKN024 OVC036 15/14 A3011 RMK AO2
KFAM 230626Z AUTO 03005KT 10SM SCT026 OVC036 15/14 A3010 RMK AO2
KFAM 230556Z AUTO 36003KT 10SM BKN026 OVC041 16/13 A3012 RMK AO2 SLP193 T01560133 10156 20144 401780139 56002
KFAM 230456Z AUTO 36004KT 10SM OVC039 16/13 A3011 RMK AO2 SLP192 T01560133
KFAM 230356Z AUTO 04004KT 10SM OVC043 15/14 A3012 RMK AO2 SLP195 T01500139
KFAM 230156Z AUTO 06005KT 9SM OVC045 15/14 A3015 RMK AO2 SLP206 T01500139
KFAM 230056Z AUTO 03003KT 10SM OVC043 15/14 A3016 RMK AO2 SLP208 T01500139
KFAM 222356Z AUTO 04005KT 10SM FEW012 15/13 A3015 RMK AO2 SLP205 60005 T01500133 10161 20144 56005
KFAM 222256Z AUTO 03008KT 10SM OVC014 16/14 A3015 RMK AO2 SLP204 T01560139
KFAM 222156Z AUTO 03005KT 10SM OVC012 16/14 A3016 RMK AO2 SLP211 T01610144
KFAM 222152Z AUTO 05007KT 10SM OVC012 16/14 A3017 RMK AO2
KFAM 222056Z AUTO 02005KT 10SM OVC007 16/14 A3016 RMK AO2 RAE09 CIG 007V012 SLP209 P0000 60005 T01610144 56017
KFAM 221956Z AUTO 02006KT 10SM -RA OVC007 15/14 A3018 RMK AO2 CIG 005V011 SLP215 P0001 T01500144
KFAM 221856Z AUTO 04006KT 10SM -RA OVC007 15/14 A3019 RMK AO2 SLP220 P0004 T01500144
KFAM 221756Z AUTO 03007KT 10SM -RA OVC007 14/14 A3021 RMK AO2 CIG 006V011 SLP226 P0002 60009 T01440139 10150 20139 58008
KFAM 221656Z AUTO 36004KT 10SM -RA OVC009 14/14 A3023 RMK AO2 SLP232 P0000 T01440139
KFAM 221608Z AUTO 06007KT 10SM -RA OVC009 15/14 A3022 RMK AO2 CIG 006V012 P0000
KFAM 221556Z AUTO 08007KT 10SM -RA OVC011 15/14 A3023 RMK AO2 CIG 006V013 SLP231 P0002 T01500139
KFAM 221456Z AUTO 04008KT 10SM -RA BKN011 OVC039 14/13 A3023 RMK AO2 SLP233 P0001 60005 T01440128 52002
KFAM 221453Z AUTO 04008KT 10SM -RA BKN011 BKN031 OVC043 14/13 A3023 RMK AO2 P0001
KFAM 221356Z AUTO 05006KT 10SM -RA OVC065 14/13 A3022 RMK AO2 SLP231 P0002 T01390128